createdAt,value
2023-04-11T00:00:57.166Z,15.58
2023-04-11T00:03:25.490Z,15.55
2023-04-11T00:05:54.029Z,15.80
2023-04-11T00:08:21.695Z,15.94
2023-04-11T00:10:49.721Z,15.66
2023-04-11T00:13:20.088Z,15.72
2023-04-11T00:15:48.154Z,15.82
2023-04-11T00:18:15.824Z,15.49
2023-04-11T00:20:43.825Z,15.49
2023-04-11T00:23:12.352Z,15.34
2023-04-11T00:25:40.567Z,15.71
2023-04-11T00:28:08.331Z,15.46
2023-04-11T00:30:36.582Z,15.39
2023-04-11T00:33:04.306Z,15.56
2023-04-11T00:35:35.489Z,15.32
2023-04-11T00:38:04.209Z,15.32
2023-04-11T00:40:32.801Z,15.43
2023-04-11T00:43:00.522Z,15.49
2023-04-11T00:45:28.667Z,15.62
2023-04-11T00:47:56.519Z,15.36
2023-04-11T00:50:25.444Z,15.21
2023-04-11T00:52:54.211Z,15.25
2023-04-11T00:55:22.714Z,15.15
2023-04-11T00:57:54.184Z,15.08
2023-04-11T01:00:22.844Z,15.50
2023-04-11T01:02:50.822Z,15.03
2023-04-11T01:05:20.373Z,14.99
2023-04-11T01:07:51.254Z,15.17
2023-04-11T01:10:19.556Z,15.32
2023-04-11T01:12:47.603Z,15.25
2023-04-11T01:15:15.910Z,15.17
2023-04-11T01:17:43.767Z,14.84
2023-04-11T01:20:13.128Z,14.93
2023-04-11T01:22:41.677Z,15.00
2023-04-11T01:25:09.934Z,15.15
2023-04-11T01:27:37.974Z,14.95
2023-04-11T01:30:07.120Z,14.81
2023-04-11T01:32:35.758Z,15.00
2023-04-11T01:35:04.583Z,14.91
2023-04-11T01:37:32.279Z,14.85
2023-04-11T01:40:00.783Z,14.81
2023-04-11T01:42:30.518Z,15.06
2023-04-11T01:44:59.811Z,15.06
2023-04-11T01:47:27.800Z,15.21
2023-04-11T01:49:56.234Z,15.21
2023-04-11T01:52:25.102Z,15.18
2023-04-11T01:54:53.125Z,15.36
2023-04-11T01:57:20.912Z,15.16
2023-04-11T01:59:49.014Z,15.37
2023-04-11T02:02:16.990Z,15.30
2023-04-11T02:04:45.412Z,15.06
2023-04-11T02:07:15.360Z,15.20
2023-04-11T02:09:43.353Z,15.14
2023-04-11T02:12:11.211Z,15.27
2023-04-11T02:14:43.577Z,15.20
2023-04-11T02:17:13.356Z,14.94
2023-04-11T02:19:41.469Z,14.97
2023-04-11T02:22:09.549Z,14.95
2023-04-11T02:24:38.006Z,15.11
2023-04-11T02:27:06.361Z,15.20
2023-04-11T02:29:34.501Z,15.19
2023-04-11T02:32:02.373Z,15.31
2023-04-11T02:34:31.087Z,15.09
2023-04-11T02:36:58.789Z,14.99
2023-04-11T02:39:26.953Z,15.05
2023-04-11T02:41:57.637Z,15.11
2023-04-11T02:44:26.705Z,15.35
2023-04-11T02:46:56.388Z,15.41
2023-04-11T02:49:25.727Z,15.26
2023-04-11T02:51:53.911Z,14.87
2023-04-11T02:54:21.951Z,14.89
2023-04-11T02:56:49.728Z,14.87
2023-04-11T02:59:17.881Z,14.99
2023-04-11T03:01:45.644Z,14.88
2023-04-11T03:04:14.149Z,14.99
2023-04-11T03:06:55.704Z,15.26
2023-04-11T03:09:24.032Z,15.04
2023-04-11T03:11:51.832Z,15.01
2023-04-11T03:14:20.433Z,15.09
2023-04-11T03:16:48.073Z,14.85
2023-04-11T03:19:16.551Z,15.04
2023-04-11T03:21:44.907Z,14.80
2023-04-11T03:24:13.789Z,14.76
2023-04-11T03:26:42.954Z,15.04
2023-04-11T03:29:14.162Z,14.78
2023-04-11T03:32:01.375Z,14.71
2023-04-11T03:34:33.725Z,14.79
2023-04-11T03:37:03.861Z,14.85
2023-04-11T03:39:33.797Z,14.79
2023-04-11T03:42:02.735Z,14.79
2023-04-11T03:44:31.738Z,15.00
2023-04-11T03:46:59.774Z,15.12
2023-04-11T03:49:35.415Z,15.03
2023-04-11T03:52:05.235Z,15.27
2023-04-11T03:54:33.470Z,15.16
2023-04-11T03:57:01.421Z,14.95
2023-04-11T03:59:31.354Z,15.14
2023-04-11T04:02:10.820Z,14.87
2023-04-11T04:04:51.257Z,14.67
2023-04-11T04:07:26.653Z,14.88
2023-04-11T04:10:00.985Z,14.96
2023-04-11T04:12:28.844Z,14.96
2023-04-11T04:15:09.773Z,15.13
2023-04-11T04:17:37.579Z,15.06
2023-04-11T04:20:11.517Z,15.08
2023-04-11T04:22:41.020Z,15.00
2023-04-11T04:25:12.904Z,15.05
2023-04-11T04:27:44.487Z,15.24
2023-04-11T04:30:16.124Z,15.20
2023-04-11T04:33:03.374Z,14.92
2023-04-11T04:35:34.165Z,14.76
2023-04-11T04:38:06.656Z,14.93
2023-04-11T04:41:06.355Z,14.88
2023-04-11T04:43:36.234Z,15.14
2023-04-11T04:46:36.973Z,15.00
2023-04-11T04:49:07.365Z,14.91
2023-04-11T04:51:37.562Z,14.95
2023-04-11T04:54:06.493Z,15.00
2023-04-11T04:56:34.744Z,15.05
2023-04-11T04:59:02.582Z,14.74
2023-04-11T05:01:33.310Z,14.67
2023-04-11T05:04:02.931Z,14.93
2023-04-11T05:07:00.703Z,15.14
2023-04-11T05:09:30.623Z,14.87
2023-04-11T05:12:09.641Z,15.02
2023-04-11T05:14:41.673Z,15.22
2023-04-11T05:17:09.893Z,14.92
2023-04-11T05:19:37.636Z,14.88
2023-04-11T05:22:06.252Z,14.73
2023-04-11T05:24:38.455Z,14.79
2023-04-11T05:27:10.113Z,14.72
2023-04-11T05:29:37.782Z,14.76
2023-04-11T05:32:06.001Z,14.79
2023-04-11T05:34:34.641Z,15.02
2023-04-11T05:37:02.753Z,14.91
2023-04-11T05:39:30.691Z,15.09
2023-04-11T05:41:58.705Z,14.83
2023-04-11T05:44:26.583Z,14.93
2023-04-11T05:46:54.614Z,15.03
2023-04-11T05:49:22.369Z,15.36
2023-04-11T05:51:50.500Z,15.63
2023-04-11T05:54:31.345Z,15.27
2023-04-11T05:56:59.705Z,15.45
2023-04-11T05:59:28.966Z,15.46
2023-04-11T06:01:57.542Z,15.57
2023-04-11T06:04:25.643Z,15.65
2023-04-11T06:06:53.881Z,15.95
2023-04-11T06:09:21.572Z,15.95
2023-04-11T06:11:49.634Z,16.22
2023-04-11T06:14:17.437Z,16.61
2023-04-11T06:16:45.872Z,16.51
2023-04-11T06:19:13.573Z,16.82
2023-04-11T06:21:41.822Z,16.66
2023-04-11T06:24:10.283Z,16.65
2023-04-11T06:26:38.385Z,16.95
2023-04-11T06:29:06.720Z,16.72
2023-04-11T06:31:34.940Z,16.82
2023-04-11T06:34:03.532Z,17.04
2023-04-11T06:36:31.797Z,17.01
2023-04-11T06:38:59.525Z,16.90
2023-04-11T06:41:27.605Z,16.84
2023-04-11T06:43:55.521Z,16.97
2023-04-11T06:46:24.004Z,17.03
2023-04-11T06:48:51.810Z,17.55
2023-04-11T06:51:19.856Z,17.10
2023-04-11T06:53:47.706Z,17.18
2023-04-11T06:56:15.755Z,17.60
2023-04-11T06:58:43.478Z,17.77
2023-04-11T07:01:12.887Z,17.77
2023-04-11T07:03:40.890Z,17.40
2023-04-11T07:06:09.245Z,17.49
2023-04-11T07:08:37.036Z,17.54
2023-04-11T07:11:05.708Z,17.42
2023-04-11T07:13:33.640Z,17.60
2023-04-11T07:16:01.829Z,17.68
2023-04-11T07:18:30.466Z,17.90
2023-04-11T07:20:58.517Z,17.94
2023-04-11T07:23:26.274Z,18.04
2023-04-11T07:25:54.725Z,18.68
2023-04-11T07:28:24.050Z,18.49
2023-04-11T07:30:52.278Z,18.72
2023-04-11T07:33:19.980Z,19.22
2023-04-11T07:35:47.979Z,18.93
2023-04-11T07:38:29.524Z,18.44
2023-04-11T07:40:58.032Z,18.99
2023-04-11T07:43:26.390Z,19.29
2023-04-11T07:45:55.468Z,19.11
2023-04-11T07:48:23.577Z,18.51
2023-04-11T07:50:52.247Z,18.81
2023-04-11T07:53:19.976Z,19.09
2023-04-11T07:55:48.185Z,19.76
2023-04-11T07:58:16.009Z,19.51
2023-04-11T08:00:44.104Z,19.23
2023-04-11T08:03:13.568Z,19.09
2023-04-11T08:05:41.966Z,19.12
2023-04-11T08:08:09.708Z,19.31
2023-04-11T08:10:37.749Z,19.58
2023-04-11T08:13:05.456Z,19.68
2023-04-11T08:15:34.995Z,19.30
2023-04-11T08:18:02.814Z,19.73
2023-04-11T08:20:31.249Z,19.33
2023-04-11T08:22:59.636Z,19.51
2023-04-11T08:25:28.050Z,19.30
2023-04-11T08:27:55.969Z,19.64
2023-04-11T08:30:24.024Z,19.39
2023-04-11T08:32:51.771Z,19.51
2023-04-11T08:35:19.809Z,20.28
2023-04-11T08:37:49.284Z,19.74
2023-04-11T08:40:17.288Z,19.21
2023-04-11T08:42:45.075Z,19.75
2023-04-11T08:45:13.314Z,19.91
2023-04-11T08:47:43.199Z,20.18
2023-04-11T08:50:12.864Z,21.08
2023-04-11T08:52:43.390Z,20.54
2023-04-11T08:55:12.867Z,20.33
2023-04-11T08:57:40.496Z,20.86
2023-04-11T09:00:14.290Z,21.02
2023-04-11T09:02:55.684Z,20.89
2023-04-11T09:05:33.127Z,20.70
2023-04-11T09:08:02.466Z,20.39
2023-04-11T09:10:30.877Z,20.46
2023-04-11T09:12:58.753Z,20.54
2023-04-11T09:15:28.131Z,20.15
2023-04-11T09:18:00.385Z,20.95
2023-04-11T09:20:30.657Z,20.42
2023-04-11T09:23:01.616Z,20.18
2023-04-11T09:25:29.769Z,20.91
2023-04-11T09:28:07.559Z,21.15
2023-04-11T09:30:36.208Z,21.21
2023-04-11T09:33:23.636Z,20.29
2023-04-11T09:35:52.967Z,20.87
2023-04-11T09:38:32.850Z,20.54
2023-04-11T09:41:02.578Z,20.61
2023-04-11T09:43:50.745Z,20.76
2023-04-11T09:46:21.487Z,20.92
2023-04-11T09:48:50.051Z,20.94
2023-04-11T09:51:32.289Z,20.89
2023-04-11T09:54:04.472Z,21.92
2023-04-11T09:56:34.789Z,21.37
2023-04-11T09:59:03.449Z,21.17
2023-04-11T10:01:32.866Z,20.91
2023-04-11T10:04:01.592Z,20.93
2023-04-11T10:06:31.890Z,20.95
2023-04-11T10:09:11.284Z,20.94
2023-04-11T10:11:45.621Z,21.61
2023-04-11T10:14:32.085Z,22.26
2023-04-11T10:17:19.845Z,21.73
2023-04-11T10:19:51.805Z,21.84
2023-04-11T10:22:38.416Z,21.99
2023-04-11T10:25:19.615Z,22.09
2023-04-11T10:27:57.446Z,21.48
2023-04-11T10:30:48.146Z,21.91
2023-04-11T10:33:17.876Z,21.62
2023-04-11T10:35:59.508Z,21.91
2023-04-11T10:38:49.399Z,22.79
2023-04-11T10:41:23.601Z,22.28
2023-04-11T10:43:52.245Z,23.02
2023-04-11T10:46:24.694Z,22.68
2023-04-11T10:48:56.800Z,22.54
2023-04-11T10:51:26.257Z,22.15
2023-04-11T10:53:54.849Z,22.47
2023-04-11T10:56:40.768Z,22.40
2023-04-11T10:59:28.679Z,23.40
2023-04-11T11:01:56.890Z,23.85
2023-04-11T11:04:32.431Z,23.66
2023-04-11T11:07:07.461Z,22.80
2023-04-11T11:09:35.666Z,22.12
2023-04-11T11:12:10.857Z,22.55
2023-04-11T11:14:40.121Z,22.21
2023-04-11T11:17:09.482Z,22.74
2023-04-11T11:19:37.887Z,22.67
2023-04-11T11:22:14.602Z,22.77
2023-04-11T11:24:42.852Z,21.96
2023-04-11T11:27:23.894Z,22.11
2023-04-11T11:29:53.019Z,22.72
2023-04-11T11:32:28.539Z,22.32
2023-04-11T11:34:57.928Z,22.17
2023-04-11T11:37:25.977Z,22.95
2023-04-11T11:39:54.262Z,23.32
2023-04-11T11:42:22.314Z,23.14
2023-04-11T11:44:50.562Z,23.22
2023-04-11T11:47:18.520Z,23.39
2023-04-11T11:49:54.603Z,23.84
2023-04-11T11:52:35.277Z,23.30
2023-04-11T11:55:06.792Z,23.58
2023-04-11T11:57:37.692Z,23.66
2023-04-11T12:00:06.322Z,23.05
2023-04-11T12:02:35.767Z,23.03
2023-04-11T12:05:07.378Z,23.84
2023-04-11T12:07:37.031Z,23.03
2023-04-11T12:10:10.973Z,23.47
2023-04-11T12:12:39.320Z,22.85
2023-04-11T12:15:14.659Z,22.48
2023-04-11T12:17:42.923Z,23.23
2023-04-11T12:20:11.527Z,23.46
2023-04-11T12:22:40.053Z,23.69
2023-04-11T12:25:09.108Z,23.63
2023-04-11T12:27:37.539Z,22.95
2023-04-11T12:30:06.103Z,23.10
2023-04-11T12:32:34.442Z,24.47
2023-04-11T12:35:03.455Z,24.24
2023-04-11T12:37:31.856Z,23.94
2023-04-11T12:40:00.718Z,23.90
2023-04-11T12:42:28.589Z,23.21
2023-04-11T12:44:56.791Z,23.81
2023-04-11T12:47:24.510Z,24.31
2023-04-11T12:49:52.640Z,24.17
2023-04-11T12:52:20.470Z,24.39
2023-04-11T12:54:48.510Z,23.97
2023-04-11T12:57:16.290Z,23.76
2023-04-11T12:59:44.451Z,23.82
2023-04-11T13:02:12.408Z,23.76
2023-04-11T13:04:41.073Z,24.45
2023-04-11T13:07:10.259Z,24.15
2023-04-11T13:09:38.381Z,24.53
2023-04-11T13:12:06.171Z,24.72
2023-04-11T13:14:36.642Z,25.12
2023-04-11T13:17:04.923Z,25.17
2023-04-11T13:19:33.044Z,25.09
2023-04-11T13:22:00.985Z,24.86
2023-04-11T13:24:29.141Z,24.88
2023-04-11T13:26:57.275Z,24.54
2023-04-11T13:29:25.419Z,23.15
2023-04-11T13:31:53.475Z,23.14
2023-04-11T13:34:21.945Z,23.09
2023-04-11T13:36:49.792Z,24.06
2023-04-11T13:39:17.873Z,23.39
2023-04-11T13:41:45.662Z,23.21
2023-04-11T13:44:13.788Z,23.47
2023-04-11T13:46:41.446Z,24.01
2023-04-11T13:49:09.615Z,23.24
2023-04-11T13:51:37.296Z,23.06
2023-04-11T13:54:05.376Z,23.67
2023-04-11T13:56:33.016Z,23.80
2023-04-11T13:59:01.436Z,24.35
2023-04-11T14:01:29.186Z,24.59
2023-04-11T14:03:57.741Z,24.42
2023-04-11T14:06:26.797Z,24.07
2023-04-11T14:08:55.072Z,24.31
2023-04-11T14:11:22.793Z,23.39
2023-04-11T14:13:50.856Z,23.26
2023-04-11T14:16:18.616Z,23.16
2023-04-11T14:18:46.798Z,23.01
2023-04-11T14:21:14.498Z,23.46
2023-04-11T14:23:44.693Z,23.85
2023-04-11T14:26:12.387Z,23.60
2023-04-11T14:28:40.732Z,23.34
2023-04-11T14:31:09.005Z,22.80
2023-04-11T14:33:37.105Z,23.88
2023-04-11T14:36:04.863Z,23.98
2023-04-11T14:38:32.910Z,24.37
2023-04-11T14:41:00.634Z,24.45
2023-04-11T14:43:28.672Z,24.61
2023-04-11T14:45:58.041Z,24.77
2023-04-11T14:48:26.541Z,24.53
2023-04-11T14:50:55.568Z,24.32
2023-04-11T14:53:23.647Z,24.00
2023-04-11T14:55:51.411Z,25.08
2023-04-11T14:58:19.425Z,25.42
2023-04-11T15:00:47.132Z,24.88
2023-04-11T15:03:15.768Z,24.60
2023-04-11T15:05:43.661Z,24.83
2023-04-11T15:08:11.664Z,24.36
2023-04-11T15:10:39.319Z,24.13
2023-04-11T15:13:09.369Z,24.50
2023-04-11T15:15:37.095Z,24.43
2023-04-11T15:18:24.792Z,24.29
2023-04-11T15:20:52.848Z,25.70
2023-04-11T15:23:21.715Z,25.70
2023-04-11T15:25:56.569Z,24.63
2023-04-11T15:28:25.684Z,24.59
2023-04-11T15:30:54.131Z,23.94
2023-04-11T15:33:24.328Z,24.55
2023-04-11T15:35:54.134Z,24.75
2023-04-11T15:38:23.253Z,25.01
2023-04-11T15:40:51.611Z,24.21
2023-04-11T15:43:20.370Z,23.96
2023-04-11T15:45:48.203Z,24.12
2023-04-11T15:48:16.497Z,23.51
2023-04-11T15:50:45.256Z,24.13
2023-04-11T15:53:13.664Z,24.56
2023-04-11T15:55:42.005Z,24.84
2023-04-11T15:58:10.227Z,25.04
2023-04-11T16:00:38.530Z,24.79
2023-04-11T16:03:08.650Z,24.94
2023-04-11T16:05:41.887Z,24.98
2023-04-11T16:08:10.497Z,25.13
2023-04-11T16:10:38.253Z,24.55
2023-04-11T16:13:06.334Z,24.38
2023-04-11T16:15:34.120Z,24.76
2023-04-11T16:18:02.152Z,25.19
2023-04-11T16:20:32.170Z,24.31
2023-04-11T16:23:00.200Z,24.43
2023-04-11T16:25:27.968Z,24.39
2023-04-11T16:27:56.189Z,24.55
2023-04-11T16:30:25.647Z,24.71
2023-04-11T16:32:54.106Z,23.96
2023-04-11T16:35:21.997Z,24.50
2023-04-11T16:37:50.227Z,24.06
2023-04-11T16:40:18.418Z,24.65
2023-04-11T16:42:46.602Z,24.88
2023-04-11T16:45:14.561Z,23.97
2023-04-11T16:47:43.268Z,23.83
2023-04-11T16:50:11.404Z,24.37
2023-04-11T16:52:39.611Z,23.91
2023-04-11T16:55:07.739Z,23.28
2023-04-11T16:57:35.774Z,23.67
2023-04-11T17:00:08.537Z,23.53
2023-04-11T17:02:36.963Z,23.96
2023-04-11T17:05:05.308Z,23.85
2023-04-11T17:07:33.688Z,23.53
2023-04-11T17:10:01.520Z,23.96
2023-04-11T17:12:31.681Z,23.67
2023-04-11T17:15:02.562Z,23.30
2023-04-11T17:17:30.966Z,23.07
2023-04-11T17:19:58.868Z,23.21
2023-04-11T17:22:27.390Z,22.54
2023-04-11T17:24:55.097Z,22.98
2023-04-11T17:27:23.376Z,23.25
2023-04-11T17:29:51.576Z,23.15
2023-04-11T17:32:19.618Z,23.19
2023-04-11T17:34:48.734Z,22.96
2023-04-11T17:37:17.407Z,23.09
2023-04-11T17:39:46.562Z,23.01
2023-04-11T17:42:14.896Z,22.84
2023-04-11T17:44:42.820Z,22.93
2023-04-11T17:47:10.995Z,22.98
2023-04-11T17:49:38.721Z,22.88
2023-04-11T17:52:07.276Z,22.84
2023-04-11T17:54:35.050Z,23.06
2023-04-11T17:57:03.434Z,22.90
2023-04-11T17:59:31.784Z,22.80
2023-04-11T18:02:00.349Z,22.77
2023-04-11T18:04:29.282Z,22.76
2023-04-11T18:06:58.405Z,22.67
2023-04-11T18:09:31.981Z,22.58
2023-04-11T18:12:00.999Z,22.44
2023-04-11T18:14:28.998Z,22.61
2023-04-11T18:16:57.657Z,22.50
2023-04-11T18:19:25.567Z,22.30
2023-04-11T18:21:54.727Z,22.24
2023-04-11T18:24:22.537Z,22.10
2023-04-11T18:26:51.901Z,22.01
2023-04-11T18:29:19.836Z,22.00
2023-04-11T18:31:48.560Z,21.91
2023-04-11T18:34:16.874Z,21.80
2023-04-11T18:36:47.811Z,21.78
2023-04-11T18:39:17.661Z,21.81
2023-04-11T18:41:46.857Z,21.70
2023-04-11T18:44:14.924Z,21.71
2023-04-11T18:46:43.009Z,21.49
2023-04-11T18:49:11.275Z,21.46
2023-04-11T18:51:41.192Z,21.47
2023-04-11T18:54:09.037Z,21.33
2023-04-11T18:56:39.704Z,21.44
2023-04-11T18:59:09.947Z,21.34
2023-04-11T19:01:39.401Z,21.21
2023-04-11T19:04:08.328Z,21.27
2023-04-11T19:06:37.680Z,21.43
2023-04-11T19:09:06.608Z,21.26
2023-04-11T19:11:36.723Z,21.34
2023-04-11T19:14:05.405Z,21.29
2023-04-11T19:16:34.230Z,21.35
2023-04-11T19:19:03.338Z,21.17
2023-04-11T19:21:32.267Z,21.07
2023-04-11T19:24:01.154Z,21.19
2023-04-11T19:26:30.708Z,21.08
2023-04-11T19:28:59.359Z,20.69
2023-04-11T19:31:28.449Z,20.66
2023-04-11T19:33:56.595Z,20.12
2023-04-11T19:36:26.753Z,20.07
2023-04-11T19:38:55.642Z,19.48
2023-04-11T19:41:25.235Z,18.98
2023-04-11T19:43:57.066Z,19.27
2023-04-11T19:46:26.741Z,19.33
2023-04-11T19:48:55.274Z,19.71
2023-04-11T19:51:23.740Z,19.65
2023-04-11T19:53:57.298Z,19.28
2023-04-11T19:56:27.538Z,19.19
2023-04-11T19:58:55.457Z,18.62
2023-04-11T20:01:24.357Z,18.97
2023-04-11T20:03:57.466Z,18.89
2023-04-11T20:06:28.416Z,18.68
2023-04-11T20:08:58.302Z,18.54
2023-04-11T20:11:29.235Z,19.03
2023-04-11T20:13:58.112Z,18.99
2023-04-11T20:16:26.860Z,18.84
2023-04-11T20:18:54.764Z,18.98
2023-04-11T20:21:24.042Z,18.90
2023-04-11T20:23:52.485Z,18.93
2023-04-11T20:26:22.967Z,18.71
2023-04-11T20:28:50.782Z,18.98
2023-04-11T20:31:19.008Z,18.58
2023-04-11T20:33:47.227Z,18.69
2023-04-11T20:36:17.594Z,18.42
2023-04-11T20:38:47.891Z,18.44
2023-04-11T20:41:20.044Z,18.40
2023-04-11T20:43:47.796Z,18.42
2023-04-11T20:46:18.082Z,18.39
2023-04-11T20:48:46.297Z,18.46
2023-04-11T20:51:16.368Z,18.48
2023-04-11T20:53:45.373Z,18.62
2023-04-11T20:56:15.114Z,18.75
2023-04-11T20:58:43.554Z,18.71
2023-04-11T21:01:12.137Z,18.61
2023-04-11T21:03:42.644Z,18.48
2023-04-11T21:06:11.183Z,18.48
2023-04-11T21:08:38.954Z,18.50
2023-04-11T21:11:07.356Z,18.61
2023-04-11T21:13:35.152Z,18.35
2023-04-11T21:16:03.307Z,18.06
2023-04-11T21:18:31.165Z,18.21
2023-04-11T21:20:59.202Z,18.48
2023-04-11T21:23:27.166Z,18.48
2023-04-11T21:25:55.196Z,18.35
2023-04-11T21:28:22.978Z,18.15
2023-04-11T21:30:51.099Z,18.30
2023-04-11T21:33:18.954Z,18.12
2023-04-11T21:35:47.161Z,18.29
2023-04-11T21:38:15.879Z,18.14
2023-04-11T21:40:43.870Z,18.04
2023-04-11T21:43:11.568Z,18.22
2023-04-11T21:45:39.726Z,18.08
2023-04-11T21:48:07.409Z,18.42
2023-04-11T21:50:36.381Z,18.20
2023-04-11T21:53:04.011Z,18.49
2023-04-11T21:55:31.977Z,17.96
2023-04-11T21:57:59.667Z,18.08
2023-04-11T22:00:27.663Z,18.01
2023-04-11T22:02:55.544Z,18.22
2023-04-11T22:05:24.169Z,18.30
2023-04-11T22:07:52.148Z,18.15
2023-04-11T22:10:23.749Z,18.23
2023-04-11T22:12:54.768Z,18.26
2023-04-11T22:15:24.600Z,18.16
2023-04-11T22:17:54.729Z,17.84
2023-04-11T22:20:22.913Z,18.05
2023-04-11T22:22:50.568Z,17.96
2023-04-11T22:25:20.661Z,18.03
2023-04-11T22:27:49.921Z,17.90
2023-04-11T22:30:17.898Z,18.10
2023-04-11T22:32:47.144Z,18.17
2023-04-11T22:35:15.698Z,18.25
2023-04-11T22:37:43.309Z,18.36
2023-04-11T22:40:15.744Z,18.08
2023-04-11T22:42:43.395Z,18.06
2023-04-11T22:45:11.790Z,18.04
2023-04-11T22:47:40.299Z,18.05
2023-04-11T22:50:09.626Z,18.01
2023-04-11T22:52:38.002Z,18.12
2023-04-11T22:55:07.735Z,18.07
2023-04-11T22:57:36.906Z,18.10
2023-04-11T23:00:07.568Z,18.07
2023-04-11T23:02:37.524Z,18.11
2023-04-11T23:05:06.057Z,18.15
2023-04-11T23:07:34.595Z,18.31
2023-04-11T23:10:05.638Z,18.29
2023-04-11T23:12:33.337Z,18.17
2023-04-11T23:15:02.737Z,17.89
2023-04-11T23:17:30.564Z,18.05
2023-04-11T23:19:59.708Z,18.00
2023-04-11T23:22:27.698Z,18.27
2023-04-11T23:24:55.627Z,18.17
2023-04-11T23:27:23.752Z,18.02
2023-04-11T23:29:52.924Z,18.17
2023-04-11T23:32:20.844Z,18.36
2023-04-11T23:34:48.940Z,18.41
2023-04-11T23:37:16.924Z,18.09
2023-04-11T23:39:45.061Z,18.02
2023-04-11T23:42:12.798Z,18.05
2023-04-11T23:44:41.427Z,18.27
2023-04-11T23:47:09.179Z,18.42
2023-04-11T23:49:37.619Z,17.95
2023-04-11T23:52:05.256Z,18.09
2023-04-11T23:54:34.204Z,18.16
2023-04-11T23:57:02.454Z,18.11
2023-04-11T23:59:31.586Z,18.21
